• Join FlightAware (Why Join?)
  • Login
  • US Flag 
09:51AM EDT


 

Airport Tracker/Info


-or-


 

Live Flight TrackerFlight Track Log ✈ N207HP ✈ 15-Jul-2013 ✈ 41A - 33J

Flight Track Log - Related Links

Times and Time Zones

All times are in EDT time to prevent confusion due to time zone crossing. See the N207HP flight status page for this flight to view local times or setup timezone preferences in your user account.

Time Position Orientation Groundspeed Altitude Reporting Facility
EDT Latitude Longitude Course Direction KTS MPH feet Rate Location/Type
09:59AM 32.3296 -85.8753 180° South  Level Estimated
09:59AM 32.1789 -85.8969 180° South 95 109 4,500  Level Jacksonville Center
10:00AM 32.2925 -85.8751 180° South  Level Estimated
10:00AM 32.1456 -85.8958 178° South 98 113 4,500  Level Jacksonville Center
10:01AM 32.2555 -85.8749 180° South  Level Estimated
10:01AM 32.1164 -85.8972 182° South 102 117 4,500  Level Jacksonville Center
10:02AM 32.2184 -85.8747 180° South  Level Estimated
10:02AM 32.0892 -85.8939 174° South 101 116 4,500  Level Jacksonville Center
10:03AM 32.1813 -85.8745 180° South  Level Estimated
10:03AM 32.0600 -85.8956 183° South 102 117 4,500  Level Jacksonville Center
10:04AM 32.1442 -85.8743 180° South  Level Estimated
10:04AM 32.0328 -85.8922 174° South 100 115 4,400  Level Jacksonville Center
10:05AM 32.0039 -85.8886 174° South 101 116 4,300 -60 Descending Jacksonville Center
10:06AM 31.9744 -85.8903 183° South 99 114 4,300  Level Jacksonville Center
10:07AM 31.9475 -85.8869 174° South 99 114 4,300  Level Jacksonville Center
10:08AM 31.9225 -85.8861 178° South 100 115 4,300  Level Jacksonville Center
10:09AM 31.8953 -85.8875 182° South 99 114 4,300  Level Jacksonville Center
10:10AM 31.8703 -85.8867 178° South 99 114 4,400  Climbing Jacksonville Center
10:11AM 31.8411 -85.8858 179° South 101 116 4,400  Level Jacksonville Center
10:12AM 31.8117 -85.8872 182° South 100 115 4,400  Level Jacksonville Center
10:13AM 31.7825 -85.8839 174° South 99 114 4,400  Level Jacksonville Center
10:14AM 31.7553 -85.8856 183° South 101 116 4,400  Level Jacksonville Center
10:15AM 31.7264 -85.8822 174° South 103 119 4,400  Level Jacksonville Center
10:16AM 31.6992 -85.8836 182° South 104 120 4,400  Level Jacksonville Center
10:17AM 31.6678 -85.8853 183° South 102 117 4,400  Level Jacksonville Center
10:18AM 31.6386 -85.8842 178° South 101 116 4,400  Level Jacksonville Center
10:19AM 31.6114 -85.8858 183° South 102 117 4,400  Level Jacksonville Center
10:20AM 31.5819 -85.8922 190° South 106 122 4,400  Level Jacksonville Center
10:22AM 31.5486 -85.8911 178° South 103 119 4,500  Climbing Jacksonville Center
10:23AM 31.5214 -85.8925 182° South 104 120 4,500  Level Jacksonville Center
10:23AM 31.4942 -85.8917 179° South 102 117 4,500  Level Jacksonville Center
10:24AM 31.4650 -85.8908 179° South 105 121 4,500 -180 Level Jacksonville Center
10:25AM 31.4336 -85.9019 197° South 119 137 4,200 -540 Descending Jacksonville Center
10:26AM 31.4306 -85.9408 265° West 135 155 3,500 -1,140 Descending Jacksonville Center
10:27AM 31.4475 -85.9292 30° Northeast 131 151 2,000 -900 Descending Jacksonville Center
10:29AM 31.4242 -85.9456 211° Southwest 105 121 1,700 -180 Descending Jacksonville Center
10:29AM 31.3992 -85.9422 174° South 98 113 1,700  Level Jacksonville Center
10:31AM 31.3681 -85.9364 171° South 101 116 1,700  Level Jacksonville Center
10:31AM 31.3431 -85.9331 174° South 106 122 1,700  Level Jacksonville Center
10:32AM 31.3117 -85.9297 175° South 114 131 1,700  Level Jacksonville Center
10:33AM 31.2828 -85.9239 170° South 105 121 1,700  Level Jacksonville Center
10:35AM 31.2536 -85.9206 174° South 98 113 1,700 -60 Level Jacksonville Center
10:36AM 31.2244 -85.9147 170° South 101 116 1,600 -60 Descending Jacksonville Center
10:37AM 31.1953 -85.9114 174° South 104 120 1,600  Level Jacksonville Center